createdAt,value
2022-08-22T00:00:44.908Z,100932.03
2022-08-22T00:02:41.622Z,100848.41
2022-08-22T00:03:10.285Z,100823.72
2022-08-22T00:03:12.645Z,100898.91
2022-08-22T00:03:27.574Z,100925.78
2022-08-22T00:06:11.115Z,100936.59
2022-08-22T00:08:48.434Z,100937.59
2022-08-22T00:11:29.672Z,100937.75
2022-08-22T00:14:02.212Z,100938.59
2022-08-22T00:16:38.735Z,100942.16
2022-08-22T00:19:18.665Z,100927.28
2022-08-22T00:21:58.138Z,100937.66
2022-08-22T00:24:34.081Z,100956.13
2022-08-22T00:27:05.973Z,100954.44
2022-08-22T00:29:39.712Z,100958.00
2022-08-22T00:32:14.450Z,100962.53
2022-08-22T00:34:52.138Z,100976.06
2022-08-22T00:37:27.193Z,100957.31
2022-08-22T00:40:04.704Z,100968.94
2022-08-22T00:43:09.021Z,100977.91
2022-08-22T00:45:59.746Z,100979.06
2022-08-22T00:48:59.284Z,100976.53
2022-08-22T00:51:53.923Z,100978.50
2022-08-22T00:54:33.443Z,100976.81
2022-08-22T00:57:24.300Z,100986.78
2022-08-22T01:00:10.086Z,100983.50
2022-08-22T01:02:58.665Z,100980.13
2022-08-22T01:05:40.545Z,100982.25
2022-08-22T01:08:24.121Z,100985.81
2022-08-22T01:11:08.740Z,100983.38
2022-08-22T01:13:53.166Z,100991.63
2022-08-22T01:16:40.425Z,100981.41
2022-08-22T01:19:32.345Z,100988.22
2022-08-22T01:22:26.348Z,100992.09
2022-08-22T01:25:27.950Z,100992.22
2022-08-22T01:28:20.488Z,100993.38
2022-08-22T01:31:17.017Z,100997.91
2022-08-22T01:34:19.250Z,101007.16
2022-08-22T01:37:06.164Z,101009.19
2022-08-22T01:40:06.791Z,101011.03
2022-08-22T01:42:53.837Z,101014.75
2022-08-22T01:45:52.850Z,101016.72
2022-08-22T01:48:25.257Z,101019.56
2022-08-22T01:50:59.442Z,101012.16
2022-08-22T01:53:40.464Z,101016.59
2022-08-22T01:56:12.942Z,101022.97
2022-08-22T01:58:46.314Z,101025.56
2022-08-22T02:01:28.776Z,101021.84
2022-08-22T02:04:04.703Z,101029.94
2022-08-22T02:06:43.072Z,101026.09
2022-08-22T02:09:23.048Z,101028.97
2022-08-22T02:11:56.409Z,101032.53
2022-08-22T02:14:41.816Z,101033.50
2022-08-22T02:17:18.345Z,101017.88
2022-08-22T02:20:08.720Z,101039.78
2022-08-22T02:22:44.986Z,101041.78
2022-08-22T02:25:18.300Z,101041.78
2022-08-22T02:27:53.758Z,101034.66
2022-08-22T02:30:26.595Z,101032.69
2022-08-22T02:33:02.434Z,100998.00
2022-08-22T02:35:36.579Z,101041.34
2022-08-22T02:38:24.136Z,101039.81
2022-08-22T02:41:02.034Z,101045.34
2022-08-22T02:43:40.894Z,101039.94
2022-08-22T02:46:20.912Z,101037.38
2022-08-22T02:48:55.975Z,101040.53
2022-08-22T02:51:32.636Z,101044.06
2022-08-22T02:54:14.166Z,101050.47
2022-08-22T02:56:46.949Z,101047.03
2022-08-22T02:59:33.336Z,101055.31
2022-08-22T03:02:29.657Z,101057.16
2022-08-22T03:05:01.008Z,101014.94
2022-08-22T03:07:40.404Z,101024.03
2022-08-22T03:10:19.703Z,101055.75
2022-08-22T03:12:57.632Z,101057.75
2022-08-22T03:15:34.150Z,101052.47
2022-08-22T03:18:07.972Z,101058.72
2022-08-22T03:20:46.980Z,101064.13
2022-08-22T03:23:25.381Z,101063.44
2022-08-22T03:26:07.537Z,101073.38
2022-08-22T03:28:40.348Z,101086.19
2022-08-22T03:31:27.319Z,101079.22
2022-08-22T03:34:22.249Z,101083.78
2022-08-22T03:37:03.749Z,101087.44
2022-08-22T03:39:54.844Z,101088.59
2022-08-22T03:42:51.980Z,101091.56
2022-08-22T03:46:05.556Z,101090.75
2022-08-22T03:49:08.024Z,101099.13
2022-08-22T03:52:03.227Z,101104.66
2022-08-22T03:55:00.405Z,101105.63
2022-08-22T03:58:00.473Z,101110.16
2022-08-22T04:01:03.709Z,101108.59
2022-08-22T04:03:59.733Z,101112.00
2022-08-22T04:06:56.447Z,101114.88
2022-08-22T04:09:50.377Z,101119.41
2022-08-22T04:12:49.484Z,101122.22
2022-08-22T04:15:50.229Z,101134.75
2022-08-22T04:18:33.554Z,101129.63
2022-08-22T04:21:27.782Z,101124.22
2022-08-22T04:24:10.485Z,101142.28
2022-08-22T04:26:46.233Z,101147.69
2022-08-22T04:29:20.684Z,101149.56
2022-08-22T04:32:01.911Z,101156.66
2022-08-22T04:34:35.541Z,101149.56
2022-08-22T04:37:11.124Z,101151.94
2022-08-22T04:39:45.642Z,101158.38
2022-08-22T04:42:34.885Z,101166.19
2022-08-22T04:45:09.213Z,101164.47
2022-08-22T04:47:44.138Z,101163.25
2022-08-22T04:50:22.024Z,101162.25
2022-08-22T04:53:12.480Z,101163.69
2022-08-22T04:55:55.936Z,101167.94
2022-08-22T04:58:36.753Z,101172.22
2022-08-22T05:01:13.545Z,101175.75
2022-08-22T05:03:48.257Z,101170.66
2022-08-22T05:06:19.183Z,101172.94
2022-08-22T05:08:53.678Z,101176.34
2022-08-22T05:11:25.077Z,101178.75
2022-08-22T05:13:56.276Z,101176.06
2022-08-22T05:16:27.773Z,101174.06
2022-08-22T05:19:02.878Z,101174.91
2022-08-22T05:21:33.894Z,101184.88
2022-08-22T05:24:06.336Z,101192.69
2022-08-22T05:26:38.966Z,101200.66
2022-08-22T05:29:10.850Z,101198.09
2022-08-22T05:31:42.826Z,101206.91
2022-08-22T05:34:16.713Z,101207.78
2022-08-22T05:36:49.772Z,101202.38
2022-08-22T05:39:20.834Z,101212.06
2022-08-22T05:41:50.809Z,101215.63
2022-08-22T05:44:21.935Z,101197.94
2022-08-22T05:46:55.106Z,101213.63
2022-08-22T05:49:38.878Z,101213.50
2022-08-22T05:52:11.656Z,101223.44
2022-08-22T05:54:50.137Z,101224.16
2022-08-22T05:57:26.716Z,101217.03
2022-08-22T06:00:02.017Z,101221.59
2022-08-22T06:02:53.465Z,101234.97
2022-08-22T06:05:28.600Z,101239.50
2022-08-22T06:08:02.255Z,101230.41
2022-08-22T06:10:37.713Z,101242.91
2022-08-22T06:13:11.852Z,101244.63
2022-08-22T06:15:47.212Z,101243.78
2022-08-22T06:18:21.964Z,101245.50
2022-08-22T06:20:55.583Z,101245.50
2022-08-22T06:23:29.369Z,101221.13
2022-08-22T06:26:01.322Z,101249.88
2022-08-22T06:28:35.677Z,101220.44
2022-08-22T06:31:06.259Z,101246.22
2022-08-22T06:33:42.372Z,101246.91
2022-08-22T06:36:34.151Z,101254.03
2022-08-22T06:39:17.452Z,101256.75
2022-08-22T06:41:51.986Z,101262.28
2022-08-22T06:44:26.737Z,101263.00
2022-08-22T06:46:58.717Z,101264.00
2022-08-22T06:49:28.125Z,101273.81
2022-08-22T06:52:02.997Z,101274.53
2022-08-22T06:54:36.313Z,101274.66
2022-08-22T06:57:06.622Z,101266.25
2022-08-22T06:59:39.585Z,101278.09
2022-08-22T07:02:22.187Z,101283.22
2022-08-22T07:04:51.636Z,101292.16
2022-08-22T07:07:25.020Z,101279.06
2022-08-22T07:09:55.599Z,101289.06
2022-08-22T07:12:28.824Z,101292.47
2022-08-22T07:15:01.900Z,101294.03
2022-08-22T07:17:35.897Z,101295.59
2022-08-22T07:20:13.312Z,101300.16
2022-08-22T07:22:54.088Z,101297.34
2022-08-22T07:25:24.492Z,101304.59
2022-08-22T07:28:04.753Z,101304.44
2022-08-22T07:30:50.714Z,101308.84
2022-08-22T07:33:32.946Z,101317.94
2022-08-22T07:36:04.070Z,101311.84
2022-08-22T07:38:42.806Z,101314.53
2022-08-22T07:41:16.505Z,101310.84
2022-08-22T07:43:47.694Z,101308.44
2022-08-22T07:46:28.686Z,101314.03
2022-08-22T07:49:10.207Z,101324.69
2022-08-22T07:51:44.054Z,101317.56
2022-08-22T07:54:15.909Z,101321.97
2022-08-22T07:56:48.717Z,101310.19
2022-08-22T07:59:19.776Z,101314.72
2022-08-22T08:01:53.064Z,101327.25
2022-08-22T08:04:26.303Z,101327.13
2022-08-22T08:06:57.932Z,101309.25
2022-08-22T08:09:32.912Z,101323.53
2022-08-22T08:12:03.173Z,101329.22
2022-08-22T08:14:32.479Z,101333.78
2022-08-22T08:17:04.456Z,101334.78
2022-08-22T08:19:35.906Z,101335.75
2022-08-22T08:22:04.909Z,101336.75
2022-08-22T08:24:41.530Z,101342.00
2022-08-22T08:27:33.796Z,101350.28
2022-08-22T08:30:06.978Z,101353.25
2022-08-22T08:32:40.115Z,101361.22
2022-08-22T08:35:20.281Z,101358.38
2022-08-22T08:37:54.210Z,101349.25
2022-08-22T08:40:41.348Z,101348.31
2022-08-22T08:43:28.223Z,101360.81
2022-08-22T08:46:25.501Z,101354.44
2022-08-22T08:49:17.472Z,101356.00
2022-08-22T08:52:08.568Z,101356.59
2022-08-22T08:54:55.571Z,101350.03
2022-08-22T08:57:40.677Z,101357.03
2022-08-22T09:00:14.382Z,101357.72
2022-08-22T09:02:53.802Z,101327.53
2022-08-22T09:05:55.777Z,101365.56
2022-08-22T09:09:02.853Z,101362.88
2022-08-22T09:12:02.638Z,101362.88
2022-08-22T09:14:56.168Z,101353.47
2022-08-22T09:17:56.899Z,101362.44
2022-08-22T09:20:46.504Z,101359.72
2022-08-22T09:23:42.069Z,101370.41
2022-08-22T09:26:17.789Z,101363.56
2022-08-22T09:28:53.522Z,101368.56
2022-08-22T09:31:52.014Z,101367.41
2022-08-22T09:34:29.953Z,101362.88
2022-08-22T09:37:14.628Z,101365.28
2022-08-22T09:39:53.672Z,101363.72
2022-08-22T09:42:31.958Z,101365.44
2022-08-22T09:45:33.764Z,101351.19
2022-08-22T09:48:10.785Z,101369.69
2022-08-22T09:50:54.666Z,101379.81
2022-08-22T09:53:46.124Z,101368.41
2022-08-22T09:56:26.063Z,101373.09
2022-08-22T09:59:02.863Z,101378.78
2022-08-22T10:01:38.941Z,101378.22
2022-08-22T10:04:42.354Z,101382.06
2022-08-22T10:07:27.714Z,101380.34
2022-08-22T10:10:04.135Z,101388.44
2022-08-22T10:12:37.325Z,101381.91
2022-08-22T10:15:17.893Z,101381.63
2022-08-22T10:18:00.307Z,101388.63
2022-08-22T10:20:35.754Z,101391.16
2022-08-22T10:23:15.858Z,101393.75
2022-08-22T10:25:49.964Z,101393.59
2022-08-22T10:28:28.757Z,101397.00
2022-08-22T10:31:19.108Z,101400.47
2022-08-22T10:33:56.011Z,101385.06
2022-08-22T10:36:34.071Z,101402.84
2022-08-22T10:39:05.524Z,101370.81
2022-08-22T10:41:55.772Z,101394.47
2022-08-22T10:44:37.413Z,101396.03
2022-08-22T10:47:09.861Z,101392.19
2022-08-22T10:49:47.481Z,101399.06
2022-08-22T10:52:24.328Z,101395.31
2022-08-22T10:54:57.213Z,101396.34
2022-08-22T10:57:37.456Z,101409.59
2022-08-22T11:00:13.792Z,101415.00
2022-08-22T11:02:54.540Z,101412.31
2022-08-22T11:05:35.332Z,101415.00
2022-08-22T11:08:58.564Z,101411.56
2022-08-22T11:11:40.917Z,101423.25
2022-08-22T11:14:48.464Z,101416.84
2022-08-22T11:17:53.844Z,101433.22
2022-08-22T11:20:27.045Z,101433.09
2022-08-22T11:23:22.064Z,101424.97
2022-08-22T11:26:05.217Z,101421.13
2022-08-22T11:29:13.681Z,101434.38
2022-08-22T11:31:51.544Z,101440.50
2022-08-22T11:34:35.211Z,101432.09
2022-08-22T11:37:10.944Z,101435.69
2022-08-22T11:39:45.295Z,101434.81
2022-08-22T11:42:24.177Z,101448.91
2022-08-22T11:45:01.330Z,101434.53
2022-08-22T11:47:32.670Z,101449.75
2022-08-22T11:50:13.292Z,101454.03
2022-08-22T11:53:04.627Z,101445.06
2022-08-22T11:55:39.462Z,101440.66
2022-08-22T11:58:28.891Z,101443.09
2022-08-22T12:01:02.491Z,101445.91
2022-08-22T12:03:55.637Z,101447.38
2022-08-22T12:06:49.912Z,101442.66
2022-08-22T12:09:50.595Z,101442.94
2022-08-22T12:12:33.761Z,101443.56
2022-08-22T12:15:12.772Z,101452.38
2022-08-22T12:18:21.124Z,101444.97
2022-08-22T12:21:07.489Z,101445.81
2022-08-22T12:23:55.939Z,101450.38
2022-08-22T12:26:32.941Z,101450.38
2022-08-22T12:29:27.589Z,101450.25
2022-08-22T12:32:44.003Z,101454.81
2022-08-22T12:35:36.089Z,101457.34
2022-08-22T12:38:29.004Z,101458.94
2022-08-22T12:41:34.818Z,101457.94
2022-08-22T12:44:23.976Z,101460.66
2022-08-22T12:47:21.071Z,101454.09
2022-08-22T12:50:20.645Z,101455.81
2022-08-22T12:53:07.916Z,101458.38
2022-08-22T12:55:50.580Z,101451.09
2022-08-22T12:58:39.085Z,101454.38
2022-08-22T13:01:09.674Z,101454.38
2022-08-22T13:03:45.365Z,101453.97
2022-08-22T13:06:43.280Z,101452.25
2022-08-22T13:09:28.566Z,101460.38
2022-08-22T13:12:03.029Z,101460.25
2022-08-22T13:14:35.026Z,101455.53
2022-08-22T13:17:23.734Z,101450.81
2022-08-22T13:19:58.348Z,101451.69
2022-08-22T13:22:29.424Z,101440.16
2022-08-22T13:25:05.343Z,101446.09
2022-08-22T13:27:37.036Z,101453.25
2022-08-22T13:30:12.294Z,101446.81
2022-08-22T13:32:45.618Z,101447.66
2022-08-22T13:35:23.896Z,101455.66
2022-08-22T13:37:56.806Z,101449.22
2022-08-22T13:40:29.783Z,101448.25
2022-08-22T13:43:06.317Z,101447.97
2022-08-22T13:45:37.084Z,101445.81
2022-08-22T13:48:15.729Z,101454.09
2022-08-22T13:51:02.733Z,101450.97
2022-08-22T13:53:43.246Z,101459.50
2022-08-22T13:56:31.478Z,101460.50
2022-08-22T13:59:02.681Z,101459.50
2022-08-22T14:01:40.357Z,101461.22
2022-08-22T14:04:32.055Z,101460.22
2022-08-22T14:07:24.242Z,101460.22
2022-08-22T14:09:57.746Z,101462.78
2022-08-22T14:12:33.501Z,101468.91
2022-08-22T14:15:23.359Z,101457.22
2022-08-22T14:17:56.001Z,101465.19
2022-08-22T14:20:32.532Z,101460.63
2022-08-22T14:23:05.270Z,101473.19
2022-08-22T14:25:37.222Z,101475.75
2022-08-22T14:28:21.770Z,101483.75
2022-08-22T14:31:00.654Z,101485.59
2022-08-22T14:33:35.748Z,101482.72
2022-08-22T14:36:14.927Z,101484.28
2022-08-22T14:38:49.552Z,101481.56
2022-08-22T14:41:28.647Z,101479.72
2022-08-22T14:44:24.102Z,101481.44
2022-08-22T14:46:57.341Z,101475.19
2022-08-22T14:49:30.074Z,101474.19
2022-08-22T14:52:03.425Z,101479.44
2022-08-22T14:54:33.724Z,101471.31
2022-08-22T14:57:05.069Z,101477.44
2022-08-22T14:59:50.240Z,101471.06
2022-08-22T15:02:26.553Z,101480.06
2022-08-22T15:04:56.546Z,101477.72
2022-08-22T15:07:27.285Z,101483.59
2022-08-22T15:10:01.116Z,101479.03
2022-08-22T15:12:34.296Z,101481.63
2022-08-22T15:15:10.280Z,101428.59
2022-08-22T15:17:44.094Z,101494.16
2022-08-22T15:20:27.655Z,101490.28
2022-08-22T15:22:59.091Z,101498.59
2022-08-22T15:25:32.560Z,101502.97
2022-08-22T15:28:06.001Z,101494.84
2022-08-22T15:30:44.436Z,101475.75
2022-08-22T15:33:18.926Z,101493.00
2022-08-22T15:35:48.713Z,101492.16
2022-08-22T15:38:29.864Z,101496.56
2022-08-22T15:41:38.345Z,101490.75
2022-08-22T15:44:30.638Z,101499.56
2022-08-22T15:47:23.771Z,101488.72
2022-08-22T15:49:55.661Z,101499.72
2022-08-22T15:52:28.514Z,101504.13
2022-08-22T15:55:30.277Z,101494.31
2022-08-22T15:58:07.605Z,101492.00
2022-08-22T16:00:43.715Z,101505.00
2022-08-22T16:03:26.488Z,101506.72
2022-08-22T16:05:57.936Z,101504.88
2022-08-22T16:08:33.203Z,101512.13
2022-08-22T16:11:33.224Z,101514.84
2022-08-22T16:14:24.329Z,101509.53
2022-08-22T16:17:02.069Z,101515.81
2022-08-22T16:19:34.268Z,101506.72
2022-08-22T16:22:15.605Z,101506.44
2022-08-22T16:25:03.809Z,101516.25
2022-08-22T16:27:32.056Z,101515.53
2022-08-22T16:30:14.148Z,101508.13
2022-08-22T16:32:54.360Z,101509.13
2022-08-22T16:35:59.789Z,101511.84
2022-08-22T16:38:37.709Z,101456.94
2022-08-22T16:41:06.333Z,101522.41
2022-08-22T16:43:34.450Z,101533.22
2022-08-22T16:46:02.717Z,101532.53
2022-08-22T16:48:37.290Z,101540.78
2022-08-22T16:51:12.625Z,101531.91
2022-08-22T16:54:34.468Z,101538.47
2022-08-22T16:57:14.529Z,101543.34
2022-08-22T16:59:56.140Z,101541.63
2022-08-22T17:02:49.217Z,101539.19
2022-08-22T17:05:30.993Z,101541.47
2022-08-22T17:08:17.430Z,101546.19
2022-08-22T17:11:00.786Z,101552.75
2022-08-22T17:13:50.161Z,101550.31
2022-08-22T17:16:33.004Z,101552.44
2022-08-22T17:19:14.150Z,101551.72
2022-08-22T17:21:51.964Z,101543.72
2022-08-22T17:24:33.522Z,101552.31
2022-08-22T17:27:08.777Z,101555.16
2022-08-22T17:29:53.836Z,101555.41
2022-08-22T17:32:28.671Z,101557.56
2022-08-22T17:35:04.562Z,101556.00
2022-08-22T17:37:43.158Z,101558.81
2022-08-22T17:40:37.995Z,101555.53
2022-08-22T17:43:32.773Z,101559.53
2022-08-22T17:46:36.915Z,101559.94
2022-08-22T17:49:16.543Z,101568.06
2022-08-22T17:51:50.801Z,101542.34
2022-08-22T17:54:29.793Z,101565.09
2022-08-22T17:57:05.751Z,101567.66
2022-08-22T17:59:46.439Z,101567.50
2022-08-22T18:02:20.264Z,101581.03
2022-08-22T18:04:58.829Z,101580.06
2022-08-22T18:07:36.140Z,101557.75
2022-08-22T18:10:14.519Z,101581.19
2022-08-22T18:12:49.044Z,101596.03
2022-08-22T18:15:26.872Z,101596.88
2022-08-22T18:18:01.995Z,101585.03
2022-08-22T18:20:35.999Z,101605.88
2022-08-22T18:23:21.342Z,101612.00
2022-08-22T18:26:15.523Z,101615.69
2022-08-22T18:28:53.597Z,101619.25
2022-08-22T18:31:38.412Z,101617.41
2022-08-22T18:34:19.728Z,101622.13
2022-08-22T18:36:55.584Z,101633.94
2022-08-22T18:39:29.159Z,101628.50
2022-08-22T18:42:07.103Z,101620.38
2022-08-22T18:44:38.368Z,101565.94
2022-08-22T18:47:16.441Z,101631.50
2022-08-22T18:49:48.389Z,101626.50
2022-08-22T18:52:21.359Z,101630.41
2022-08-22T18:55:23.424Z,101634.53
2022-08-22T18:58:06.780Z,101641.63
2022-08-22T19:00:53.516Z,101641.03
2022-08-22T19:03:45.367Z,101643.16
2022-08-22T19:06:38.042Z,101644.56
2022-08-22T19:09:32.115Z,101621.84
2022-08-22T19:12:10.773Z,101654.47
2022-08-22T19:15:15.872Z,101658.28
2022-08-22T19:18:20.046Z,101650.47
2022-08-22T19:21:42.589Z,101652.41
2022-08-22T19:24:35.136Z,101650.28
2022-08-22T19:27:24.624Z,101647.69
2022-08-22T19:30:04.005Z,101654.81
2022-08-22T19:33:00.327Z,101656.41
2022-08-22T19:35:38.737Z,101645.44
2022-08-22T19:38:12.194Z,101655.88
2022-08-22T19:41:00.276Z,101658.28
2022-08-22T19:43:35.819Z,101651.91
2022-08-22T19:46:07.496Z,101651.75
2022-08-22T19:48:46.768Z,101627.78
2022-08-22T19:51:27.860Z,101654.47
2022-08-22T19:54:16.396Z,101655.91
2022-08-22T19:57:10.025Z,101657.75
2022-08-22T19:59:50.477Z,101654.19
2022-08-22T20:02:32.021Z,101641.34
2022-08-22T20:05:22.762Z,101642.53
2022-08-22T20:08:05.448Z,101653.38
2022-08-22T20:10:43.830Z,101595.41
2022-08-22T20:13:21.512Z,101664.44
2022-08-22T20:16:07.215Z,101660.88
2022-08-22T20:19:06.381Z,101659.16
2022-08-22T20:21:53.062Z,101655.59
2022-08-22T20:24:25.524Z,101611.53
2022-08-22T20:27:13.393Z,101659.28
2022-08-22T20:29:49.139Z,101665.84
2022-08-22T20:32:20.552Z,101659.56
2022-08-22T20:34:52.166Z,101657.97
2022-08-22T20:37:40.413Z,101669.78
2022-08-22T20:40:54.746Z,101676.56
2022-08-22T20:43:17.469Z,101680.28
2022-08-22T20:46:05.591Z,101679.69
2022-08-22T20:48:40.649Z,101682.66
2022-08-22T20:51:10.838Z,101694.47
2022-08-22T20:53:38.933Z,101694.09
2022-08-22T20:56:08.202Z,101701.94
2022-08-22T20:58:43.865Z,101692.13
2022-08-22T21:01:13.355Z,101697.78
2022-08-22T21:03:44.567Z,101684.78
2022-08-22T21:06:15.792Z,101671.94
2022-08-22T21:08:45.164Z,101695.47
2022-08-22T21:11:39.556Z,101707.03
2022-08-22T21:14:21.243Z,101708.16
2022-08-22T21:16:49.992Z,101712.56
2022-08-22T21:19:20.226Z,101703.09
2022-08-22T21:21:48.268Z,101727.66
2022-08-22T21:24:16.495Z,101726.94
2022-08-22T21:26:50.452Z,101701.19
2022-08-22T21:29:32.694Z,101728.53
2022-08-22T21:32:11.672Z,101734.06
2022-08-22T21:34:44.022Z,101734.19
2022-08-22T21:37:15.752Z,101739.59
2022-08-22T21:39:47.050Z,101737.91
2022-08-22T21:42:24.773Z,101736.16
2022-08-22T21:44:59.521Z,101733.47
2022-08-22T21:47:32.313Z,101732.50
2022-08-22T21:50:12.054Z,101737.91
2022-08-22T21:52:44.088Z,101739.84
2022-08-22T21:55:24.533Z,101741.56
2022-08-22T21:58:04.961Z,101750.66
2022-08-22T22:00:49.318Z,101741.72
2022-08-22T22:03:20.364Z,101746.38
2022-08-22T22:05:49.397Z,101747.38
2022-08-22T22:08:18.636Z,101748.25
2022-08-22T22:10:48.680Z,101748.25
2022-08-22T22:13:18.200Z,101752.53
2022-08-22T22:15:49.637Z,101757.94
2022-08-22T22:18:23.056Z,101727.88
2022-08-22T22:20:53.312Z,101751.91
2022-08-22T22:23:22.161Z,101752.78
2022-08-22T22:25:51.266Z,101752.03
2022-08-22T22:28:23.492Z,101749.22
2022-08-22T22:30:54.150Z,101752.03
2022-08-22T22:33:25.053Z,101753.91
2022-08-22T22:35:54.946Z,101749.31
2022-08-22T22:38:24.365Z,101758.44
2022-08-22T22:40:52.720Z,101756.72
2022-08-22T22:43:21.063Z,101756.72
2022-08-22T22:45:49.037Z,101760.44
2022-08-22T22:48:24.653Z,101726.69
2022-08-22T22:50:53.387Z,101734.28
2022-08-22T22:53:33.636Z,101744.56
2022-08-22T22:56:09.211Z,101754.66
2022-08-22T22:58:38.059Z,101754.78
2022-08-22T23:01:09.232Z,101762.03
2022-08-22T23:03:38.769Z,101757.84
2022-08-22T23:06:12.390Z,101757.75
2022-08-22T23:08:40.443Z,101759.84
2022-08-22T23:11:11.632Z,101762.69
2022-08-22T23:13:39.868Z,101758.28
2022-08-22T23:16:13.443Z,101773.00
2022-08-22T23:18:43.181Z,101738.41
2022-08-22T23:21:13.058Z,101744.66
2022-08-22T23:23:41.037Z,101777.69
2022-08-22T23:26:09.312Z,101769.59
2022-08-22T23:28:37.549Z,101770.41
2022-08-22T23:31:14.309Z,101765.78
2022-08-22T23:33:44.725Z,101769.59
2022-08-22T23:36:16.545Z,101772.28
2022-08-22T23:38:45.442Z,101770.81
2022-08-22T23:41:15.044Z,101781.50
2022-08-22T23:43:44.605Z,101783.34
2022-08-22T23:46:13.141Z,101787.03
2022-08-22T23:48:41.177Z,101783.47
2022-08-22T23:51:12.370Z,101778.91
2022-08-22T23:53:40.560Z,101775.50
2022-08-22T23:56:19.470Z,101781.88
2022-08-22T23:58:49.189Z,101774.16
